Airfield :
LOGIN :

Register | Disclaimer

   EN    FR    IT 

 










Legend :    VFR   Marginal VFR   IFR   Intensive IFR   Very Intensive IFR
Visi :
Ceiling :
>= 8 km
>= 3000ft
5 to 8 km
1000 to 3000 ft
1500m to 5 km
500 to 1000 ft
800 to 1500m
200 to 500 ft
< 800m
< 200 ft
Symbols :   Thunderstorms  Fog  Heavy snow  Heavy precipitations  Wind > 20 kt
SIGMETs :     Misc.  Thunderstorms  Icing  Turbulence  Mountain Waves  Volcanic Ashes






- Airport Elevation : 74 ft
- IATA code : EIN


EHEH - Eindhoven

CURRENT METAR :
  • 270532Z AUTO 17007KT 9999 FEW059 BKN092 OVC097 02/01 Q1003 BLU 17007KT CAVOK BECMG SCT045

EXPIRED METARs :
  • 270525Z AUTO 18007KT 9999 FEW098 OVC100 02/01 Q1003 BLU
  • 270455Z AUTO 18006KT 9999 OVC110 02/01 Q1003 BLU
  • 270425Z AUTO 18007KT 9999 OVC120 02/01 Q1004 BLU
  • 270355Z AUTO 19007KT 9999 FEW052 OVC130 02/01 Q1004 BLU
  • 270325Z AUTO 20007KT 9999 OVC140 02/01 Q1005 BLU
  • 270255Z AUTO 21008KT 9999 OVC170 02/01 Q1005 BLU

TAF TAF EHEH
Valid from the 27 at 00:00 until the 28 at 06:00 UTC


262319Z 2700/2806 22005KT 9999 FEW022 SCT040
TEMPO 2700/2702 3000 SHRA SHRASN FEW008 SCT012 SCT018CB BKN025
BECMG 2707/2710 3000 RASN BKN006 OVC008
TEMPO 2707/2718 1800 -SNRA SCT002 OVC006
PROB30
TEMPO 2711/2717 1000 SNRA SCT001 BKN002
BECMG 2710/2713 13005KT
BECMG 2715/2718 29008KT
PROB40
TEMPO 2717/2720 32015G25KT 2000 SHRASN SCT008 BKN012 SCT020CB
BECMG 2718/2720 9999 NSW FEW020 SCT030



MET'MAP, your aeronautical weather chart ! - Copyright ORBIFLY December 2007 - Disclaimer

ORBIFLY MET'MAP TEAM :

Programming & Development : Alexandra Zaïnal
Concept & original design : Baudouin d'Aumeries
Assistance for programming : Marc-Olivier Méhu
Technical & hardware support : Manuel Goepfert

Contact : metmap@orbifly.com




SOURCES & CREDITS :

   NOAA